sensor_id;sensor_type;location;lat;lon;timestamp;P1;durP1;ratioP1;P2;durP2;ratioP2
5776;SDS011;2914;42.668;23.346;2023-02-15T00:01:57;55.17;;;27.47;;
5776;SDS011;2914;42.668;23.346;2023-02-15T00:04:26;58.90;;;26.70;;
5776;SDS011;2914;42.668;23.346;2023-02-15T00:07:04;54.73;;;24.80;;
5776;SDS011;2914;42.668;23.346;2023-02-15T00:09:33;46.77;;;24.00;;
5776;SDS011;2914;42.668;23.346;2023-02-15T00:12:02;55.60;;;27.50;;
5776;SDS011;2914;42.668;23.346;2023-02-15T00:14:31;53.13;;;26.43;;
5776;SDS011;2914;42.668;23.346;2023-02-15T00:17:00;51.50;;;26.13;;
5776;SDS011;2914;42.668;23.346;2023-02-15T00:19:30;53.77;;;26.33;;
5776;SDS011;2914;42.668;23.346;2023-02-15T00:21:59;49.77;;;26.13;;
5776;SDS011;2914;42.668;23.346;2023-02-15T00:24:28;49.40;;;25.50;;
5776;SDS011;2914;42.668;23.346;2023-02-15T00:26:57;51.63;;;26.43;;
5776;SDS011;2914;42.668;23.346;2023-02-15T00:32:09;60.73;;;27.10;;
5776;SDS011;2914;42.668;23.346;2023-02-15T00:34:38;52.20;;;26.87;;
5776;SDS011;2914;42.668;23.346;2023-02-15T00:37:07;47.03;;;23.37;;
5776;SDS011;2914;42.668;23.346;2023-02-15T00:39:36;49.17;;;25.83;;
5776;SDS011;2914;42.668;23.346;2023-02-15T00:42:05;51.57;;;26.43;;
5776;SDS011;2914;42.668;23.346;2023-02-15T00:44:34;51.70;;;24.77;;
5776;SDS011;2914;42.668;23.346;2023-02-15T00:47:03;49.70;;;25.97;;
5776;SDS011;2914;42.668;23.346;2023-02-15T00:49:32;47.43;;;24.17;;
5776;SDS011;2914;42.668;23.346;2023-02-15T00:52:01;44.43;;;24.30;;
5776;SDS011;2914;42.668;23.346;2023-02-15T00:54:30;46.27;;;25.07;;
5776;SDS011;2914;42.668;23.346;2023-02-15T00:57:00;46.83;;;24.90;;
5776;SDS011;2914;42.668;23.346;2023-02-15T00:59:29;51.70;;;24.90;;
5776;SDS011;2914;42.668;23.346;2023-02-15T01:01:58;56.20;;;24.90;;
5776;SDS011;2914;42.668;23.346;2023-02-15T01:04:27;44.73;;;24.70;;
5776;SDS011;2914;42.668;23.346;2023-02-15T01:06:57;49.23;;;24.90;;
5776;SDS011;2914;42.668;23.346;2023-02-15T01:09:28;56.77;;;25.23;;
5776;SDS011;2914;42.668;23.346;2023-02-15T01:11:57;44.23;;;23.23;;
5776;SDS011;2914;42.668;23.346;2023-02-15T01:14:26;54.47;;;26.50;;
5776;SDS011;2914;42.668;23.346;2023-02-15T01:16:55;50.73;;;24.63;;
5776;SDS011;2914;42.668;23.346;2023-02-15T01:19:24;49.17;;;25.13;;
5776;SDS011;2914;42.668;23.346;2023-02-15T01:21:53;57.80;;;25.70;;
5776;SDS011;2914;42.668;23.346;2023-02-15T01:24:22;53.10;;;25.23;;
5776;SDS011;2914;42.668;23.346;2023-02-15T01:26:51;46.47;;;24.77;;
5776;SDS011;2914;42.668;23.346;2023-02-15T01:29:20;49.10;;;25.10;;
5776;SDS011;2914;42.668;23.346;2023-02-15T01:31:49;47.47;;;23.67;;
5776;SDS011;2914;42.668;23.346;2023-02-15T01:34:19;48.10;;;25.73;;
5776;SDS011;2914;42.668;23.346;2023-02-15T01:36:48;43.80;;;24.13;;
5776;SDS011;2914;42.668;23.346;2023-02-15T01:39:17;49.07;;;23.97;;
5776;SDS011;2914;42.668;23.346;2023-02-15T01:41:46;47.17;;;24.10;;
5776;SDS011;2914;42.668;23.346;2023-02-15T01:47:33;43.90;;;22.67;;
5776;SDS011;2914;42.668;23.346;2023-02-15T01:50:08;43.83;;;22.43;;
5776;SDS011;2914;42.668;23.346;2023-02-15T01:52:40;46.97;;;22.77;;
5776;SDS011;2914;42.668;23.346;2023-02-15T01:55:11;52.63;;;25.10;;
5776;SDS011;2914;42.668;23.346;2023-02-15T01:57:41;40.13;;;22.30;;
5776;SDS011;2914;42.668;23.346;2023-02-15T02:00:17;43.13;;;22.37;;
5776;SDS011;2914;42.668;23.346;2023-02-15T02:02:48;44.17;;;23.33;;
5776;SDS011;2914;42.668;23.346;2023-02-15T02:05:19;51.10;;;25.40;;
5776;SDS011;2914;42.668;23.346;2023-02-15T02:07:48;46.97;;;23.07;;
5776;SDS011;2914;42.668;23.346;2023-02-15T02:10:21;48.83;;;24.40;;
5776;SDS011;2914;42.668;23.346;2023-02-15T02:12:52;43.07;;;22.20;;
5776;SDS011;2914;42.668;23.346;2023-02-15T02:15:23;51.37;;;23.80;;
5776;SDS011;2914;42.668;23.346;2023-02-15T02:18:05;41.20;;;23.77;;
5776;SDS011;2914;42.668;23.346;2023-02-15T02:24:16;46.07;;;22.00;;
5776;SDS011;2914;42.668;23.346;2023-02-15T02:27:21;45.93;;;24.20;;
5776;SDS011;2914;42.668;23.346;2023-02-15T02:33:25;42.63;;;23.77;;
5776;SDS011;2914;42.668;23.346;2023-02-15T02:36:02;49.33;;;22.50;;
5776;SDS011;2914;42.668;23.346;2023-02-15T02:38:38;47.80;;;23.73;;
5776;SDS011;2914;42.668;23.346;2023-02-15T02:41:17;42.80;;;23.07;;
5776;SDS011;2914;42.668;23.346;2023-02-15T02:43:48;47.50;;;23.33;;
5776;SDS011;2914;42.668;23.346;2023-02-15T02:46:22;44.57;;;22.87;;
5776;SDS011;2914;42.668;23.346;2023-02-15T02:48:54;50.97;;;23.57;;
5776;SDS011;2914;42.668;23.346;2023-02-15T02:51:24;42.77;;;23.00;;
5776;SDS011;2914;42.668;23.346;2023-02-15T02:53:53;46.00;;;22.27;;
5776;SDS011;2914;42.668;23.346;2023-02-15T02:56:26;44.07;;;23.40;;
5776;SDS011;2914;42.668;23.346;2023-02-15T02:58:58;42.47;;;23.10;;
5776;SDS011;2914;42.668;23.346;2023-02-15T03:01:31;47.23;;;23.60;;
5776;SDS011;2914;42.668;23.346;2023-02-15T03:04:02;43.63;;;23.30;;
5776;SDS011;2914;42.668;23.346;2023-02-15T03:09:11;43.90;;;24.03;;
5776;SDS011;2914;42.668;23.346;2023-02-15T03:11:49;43.23;;;23.53;;
5776;SDS011;2914;42.668;23.346;2023-02-15T03:17:01;49.27;;;22.93;;
5776;SDS011;2914;42.668;23.346;2023-02-15T03:22:11;41.43;;;22.43;;
5776;SDS011;2914;42.668;23.346;2023-02-15T03:24:45;39.57;;;21.77;;
5776;SDS011;2914;42.668;23.346;2023-02-15T03:27:17;39.87;;;21.30;;
5776;SDS011;2914;42.668;23.346;2023-02-15T03:29:48;43.87;;;23.30;;
5776;SDS011;2914;42.668;23.346;2023-02-15T03:32:20;41.50;;;21.07;;
5776;SDS011;2914;42.668;23.346;2023-02-15T03:34:51;44.07;;;23.10;;
5776;SDS011;2914;42.668;23.346;2023-02-15T03:37:22;43.83;;;23.60;;
5776;SDS011;2914;42.668;23.346;2023-02-15T03:39:54;41.70;;;22.33;;
5776;SDS011;2914;42.668;23.346;2023-02-15T03:42:28;34.63;;;20.67;;
5776;SDS011;2914;42.668;23.346;2023-02-15T03:44:59;42.80;;;21.70;;
5776;SDS011;2914;42.668;23.346;2023-02-15T03:47:31;40.23;;;21.27;;
5776;SDS011;2914;42.668;23.346;2023-02-15T03:50:04;44.43;;;22.50;;
5776;SDS011;2914;42.668;23.346;2023-02-15T03:52:39;40.23;;;21.40;;
5776;SDS011;2914;42.668;23.346;2023-02-15T03:55:09;47.00;;;23.30;;
5776;SDS011;2914;42.668;23.346;2023-02-15T03:57:38;40.57;;;21.83;;
5776;SDS011;2914;42.668;23.346;2023-02-15T04:00:25;39.00;;;20.30;;
5776;SDS011;2914;42.668;23.346;2023-02-15T04:03:22;41.17;;;21.70;;
5776;SDS011;2914;42.668;23.346;2023-02-15T04:05:53;38.03;;;20.90;;
5776;SDS011;2914;42.668;23.346;2023-02-15T04:08:22;49.43;;;23.40;;
5776;SDS011;2914;42.668;23.346;2023-02-15T04:10:53;50.03;;;22.00;;
5776;SDS011;2914;42.668;23.346;2023-02-15T04:13:23;45.87;;;24.40;;
5776;SDS011;2914;42.668;23.346;2023-02-15T04:16:07;44.07;;;21.50;;
5776;SDS011;2914;42.668;23.346;2023-02-15T04:18:37;40.43;;;20.77;;
5776;SDS011;2914;42.668;23.346;2023-02-15T04:21:25;42.40;;;21.77;;
5776;SDS011;2914;42.668;23.346;2023-02-15T04:24:09;37.37;;;21.17;;
5776;SDS011;2914;42.668;23.346;2023-02-15T04:26:59;39.63;;;20.93;;
5776;SDS011;2914;42.668;23.346;2023-02-15T04:29:43;39.63;;;21.80;;
5776;SDS011;2914;42.668;23.346;2023-02-15T04:32:12;37.03;;;20.10;;
5776;SDS011;2914;42.668;23.346;2023-02-15T04:34:41;70.70;;;33.90;;
5776;SDS011;2914;42.668;23.346;2023-02-15T04:37:10;104.27;;;51.93;;
5776;SDS011;2914;42.668;23.346;2023-02-15T04:39:39;53.23;;;27.20;;
5776;SDS011;2914;42.668;23.346;2023-02-15T04:42:08;54.90;;;26.80;;
5776;SDS011;2914;42.668;23.346;2023-02-15T04:44:38;69.60;;;31.30;;
5776;SDS011;2914;42.668;23.346;2023-02-15T04:47:08;89.87;;;41.30;;
5776;SDS011;2914;42.668;23.346;2023-02-15T04:49:37;50.10;;;26.93;;
5776;SDS011;2914;42.668;23.346;2023-02-15T04:52:06;107.47;;;45.70;;
5776;SDS011;2914;42.668;23.346;2023-02-15T04:54:35;50.67;;;25.10;;
5776;SDS011;2914;42.668;23.346;2023-02-15T04:57:05;55.47;;;28.20;;
5776;SDS011;2914;42.668;23.346;2023-02-15T04:59:43;55.43;;;28.37;;
5776;SDS011;2914;42.668;23.346;2023-02-15T05:02:12;42.73;;;22.83;;
5776;SDS011;2914;42.668;23.346;2023-02-15T05:05:06;39.77;;;22.00;;
5776;SDS011;2914;42.668;23.346;2023-02-15T05:07:38;43.80;;;22.07;;
5776;SDS011;2914;42.668;23.346;2023-02-15T05:10:08;46.73;;;23.03;;
5776;SDS011;2914;42.668;23.346;2023-02-15T05:12:37;45.80;;;22.73;;
5776;SDS011;2914;42.668;23.346;2023-02-15T05:15:07;42.93;;;22.33;;
5776;SDS011;2914;42.668;23.346;2023-02-15T05:17:37;44.43;;;21.43;;
5776;SDS011;2914;42.668;23.346;2023-02-15T05:20:07;53.60;;;22.80;;
5776;SDS011;2914;42.668;23.346;2023-02-15T05:22:37;40.87;;;20.80;;
5776;SDS011;2914;42.668;23.346;2023-02-15T05:25:08;43.97;;;22.43;;
5776;SDS011;2914;42.668;23.346;2023-02-15T05:27:55;38.40;;;19.87;;
5776;SDS011;2914;42.668;23.346;2023-02-15T05:30:32;43.63;;;22.13;;
5776;SDS011;2914;42.668;23.346;2023-02-15T05:33:02;40.57;;;22.60;;
5776;SDS011;2914;42.668;23.346;2023-02-15T05:35:31;45.53;;;21.47;;
5776;SDS011;2914;42.668;23.346;2023-02-15T05:38:14;37.90;;;20.73;;
5776;SDS011;2914;42.668;23.346;2023-02-15T05:40:43;38.33;;;21.73;;
5776;SDS011;2914;42.668;23.346;2023-02-15T05:43:12;42.67;;;21.20;;
5776;SDS011;2914;42.668;23.346;2023-02-15T05:45:44;43.27;;;21.50;;
5776;SDS011;2914;42.668;23.346;2023-02-15T05:48:14;30.80;;;17.07;;
5776;SDS011;2914;42.668;23.346;2023-02-15T05:50:58;48.63;;;22.77;;
5776;SDS011;2914;42.668;23.346;2023-02-15T05:53:29;40.53;;;19.50;;
5776;SDS011;2914;42.668;23.346;2023-02-15T05:56:00;47.23;;;21.57;;
5776;SDS011;2914;42.668;23.346;2023-02-15T05:58:31;40.93;;;22.03;;
5776;SDS011;2914;42.668;23.346;2023-02-15T06:01:09;43.73;;;22.97;;
5776;SDS011;2914;42.668;23.346;2023-02-15T06:03:39;40.03;;;20.37;;
5776;SDS011;2914;42.668;23.346;2023-02-15T06:06:10;37.50;;;19.10;;
5776;SDS011;2914;42.668;23.346;2023-02-15T06:08:39;37.47;;;21.70;;
5776;SDS011;2914;42.668;23.346;2023-02-15T06:11:08;43.20;;;21.90;;
5776;SDS011;2914;42.668;23.346;2023-02-15T06:13:37;41.77;;;22.57;;
5776;SDS011;2914;42.668;23.346;2023-02-15T06:16:15;38.90;;;21.10;;
5776;SDS011;2914;42.668;23.346;2023-02-15T06:18:44;33.33;;;19.20;;
5776;SDS011;2914;42.668;23.346;2023-02-15T06:21:13;41.07;;;20.70;;
5776;SDS011;2914;42.668;23.346;2023-02-15T06:23:42;43.90;;;22.30;;
5776;SDS011;2914;42.668;23.346;2023-02-15T06:26:11;36.47;;;19.43;;
5776;SDS011;2914;42.668;23.346;2023-02-15T06:28:49;39.70;;;19.47;;
5776;SDS011;2914;42.668;23.346;2023-02-15T06:31:18;35.77;;;19.37;;
5776;SDS011;2914;42.668;23.346;2023-02-15T06:33:47;45.33;;;20.63;;
5776;SDS011;2914;42.668;23.346;2023-02-15T06:36:16;35.40;;;20.00;;
5776;SDS011;2914;42.668;23.346;2023-02-15T06:38:45;37.77;;;20.73;;
5776;SDS011;2914;42.668;23.346;2023-02-15T06:41:14;39.10;;;22.13;;
5776;SDS011;2914;42.668;23.346;2023-02-15T06:43:43;42.97;;;22.07;;
5776;SDS011;2914;42.668;23.346;2023-02-15T06:46:12;41.17;;;21.40;;
5776;SDS011;2914;42.668;23.346;2023-02-15T06:48:50;39.47;;;21.83;;
5776;SDS011;2914;42.668;23.346;2023-02-15T06:51:19;35.83;;;19.63;;
5776;SDS011;2914;42.668;23.346;2023-02-15T06:53:48;42.67;;;21.07;;
5776;SDS011;2914;42.668;23.346;2023-02-15T06:56:17;35.37;;;19.07;;
5776;SDS011;2914;42.668;23.346;2023-02-15T06:58:46;36.90;;;19.63;;
5776;SDS011;2914;42.668;23.346;2023-02-15T07:01:16;33.43;;;18.40;;
5776;SDS011;2914;42.668;23.346;2023-02-15T07:03:45;34.40;;;19.17;;
5776;SDS011;2914;42.668;23.346;2023-02-15T07:06:14;41.67;;;20.43;;
5776;SDS011;2914;42.668;23.346;2023-02-15T07:08:57;29.67;;;18.33;;
5776;SDS011;2914;42.668;23.346;2023-02-15T07:11:27;35.47;;;18.77;;
5776;SDS011;2914;42.668;23.346;2023-02-15T07:14:13;36.40;;;19.57;;
5776;SDS011;2914;42.668;23.346;2023-02-15T07:16:51;45.40;;;20.43;;
5776;SDS011;2914;42.668;23.346;2023-02-15T07:19:20;31.67;;;18.77;;
5776;SDS011;2914;42.668;23.346;2023-02-15T07:21:49;37.10;;;19.10;;
5776;SDS011;2914;42.668;23.346;2023-02-15T07:24:18;33.93;;;18.70;;
5776;SDS011;2914;42.668;23.346;2023-02-15T07:26:47;33.40;;;19.20;;
5776;SDS011;2914;42.668;23.346;2023-02-15T07:29:17;30.47;;;17.23;;
5776;SDS011;2914;42.668;23.346;2023-02-15T07:31:46;34.87;;;19.30;;
5776;SDS011;2914;42.668;23.346;2023-02-15T07:34:15;37.00;;;18.67;;
5776;SDS011;2914;42.668;23.346;2023-02-15T07:36:44;35.17;;;18.57;;
5776;SDS011;2914;42.668;23.346;2023-02-15T07:39:13;32.87;;;19.20;;
5776;SDS011;2914;42.668;23.346;2023-02-15T07:41:42;35.23;;;18.17;;
5776;SDS011;2914;42.668;23.346;2023-02-15T07:44:11;37.13;;;18.47;;
5776;SDS011;2914;42.668;23.346;2023-02-15T07:46:41;31.73;;;18.70;;
5776;SDS011;2914;42.668;23.346;2023-02-15T07:49:10;30.83;;;18.90;;
5776;SDS011;2914;42.668;23.346;2023-02-15T07:51:41;29.77;;;17.37;;
5776;SDS011;2914;42.668;23.346;2023-02-15T07:54:10;33.37;;;17.70;;
5776;SDS011;2914;42.668;23.346;2023-02-15T07:56:39;40.80;;;17.63;;
5776;SDS011;2914;42.668;23.346;2023-02-15T07:59:08;30.70;;;16.50;;
5776;SDS011;2914;42.668;23.346;2023-02-15T08:01:38;32.90;;;17.40;;
5776;SDS011;2914;42.668;23.346;2023-02-15T08:04:07;38.63;;;19.27;;
5776;SDS011;2914;42.668;23.346;2023-02-15T08:06:38;34.33;;;17.37;;
5776;SDS011;2914;42.668;23.346;2023-02-15T08:09:07;35.63;;;18.17;;
5776;SDS011;2914;42.668;23.346;2023-02-15T08:11:37;32.80;;;18.03;;
5776;SDS011;2914;42.668;23.346;2023-02-15T08:14:08;32.17;;;18.43;;
5776;SDS011;2914;42.668;23.346;2023-02-15T08:16:39;34.97;;;19.50;;
5776;SDS011;2914;42.668;23.346;2023-02-15T08:19:10;35.13;;;18.57;;
5776;SDS011;2914;42.668;23.346;2023-02-15T08:21:41;27.20;;;17.37;;
5776;SDS011;2914;42.668;23.346;2023-02-15T08:24:12;27.67;;;15.50;;
5776;SDS011;2914;42.668;23.346;2023-02-15T08:26:42;31.53;;;18.07;;
5776;SDS011;2914;42.668;23.346;2023-02-15T08:29:14;35.10;;;17.63;;
5776;SDS011;2914;42.668;23.346;2023-02-15T08:31:44;31.70;;;17.27;;
5776;SDS011;2914;42.668;23.346;2023-02-15T08:34:15;37.00;;;17.10;;
5776;SDS011;2914;42.668;23.346;2023-02-15T08:36:45;32.73;;;18.23;;
5776;SDS011;2914;42.668;23.346;2023-02-15T08:39:15;34.00;;;19.23;;
5776;SDS011;2914;42.668;23.346;2023-02-15T08:41:45;42.03;;;16.77;;
5776;SDS011;2914;42.668;23.346;2023-02-15T08:44:15;37.30;;;17.70;;
5776;SDS011;2914;42.668;23.346;2023-02-15T08:46:46;30.33;;;17.33;;
5776;SDS011;2914;42.668;23.346;2023-02-15T08:49:17;28.53;;;15.90;;
5776;SDS011;2914;42.668;23.346;2023-02-15T08:51:47;31.17;;;17.20;;
5776;SDS011;2914;42.668;23.346;2023-02-15T08:54:17;33.03;;;17.00;;
5776;SDS011;2914;42.668;23.346;2023-02-15T08:56:48;25.50;;;15.80;;
5776;SDS011;2914;42.668;23.346;2023-02-15T08:59:18;30.50;;;16.90;;
5776;SDS011;2914;42.668;23.346;2023-02-15T09:01:49;28.13;;;16.57;;
5776;SDS011;2914;42.668;23.346;2023-02-15T09:04:19;28.27;;;16.93;;
5776;SDS011;2914;42.668;23.346;2023-02-15T09:06:50;28.97;;;17.40;;
5776;SDS011;2914;42.668;23.346;2023-02-15T09:09:19;28.97;;;16.97;;
5776;SDS011;2914;42.668;23.346;2023-02-15T09:11:49;27.37;;;15.50;;
5776;SDS011;2914;42.668;23.346;2023-02-15T09:14:19;27.13;;;14.60;;
5776;SDS011;2914;42.668;23.346;2023-02-15T09:16:51;25.17;;;15.10;;
5776;SDS011;2914;42.668;23.346;2023-02-15T09:19:21;28.70;;;17.37;;
5776;SDS011;2914;42.668;23.346;2023-02-15T09:21:51;30.97;;;17.20;;
5776;SDS011;2914;42.668;23.346;2023-02-15T09:24:20;26.87;;;16.83;;
5776;SDS011;2914;42.668;23.346;2023-02-15T09:26:49;32.10;;;16.17;;
5776;SDS011;2914;42.668;23.346;2023-02-15T09:29:18;27.97;;;15.53;;
5776;SDS011;2914;42.668;23.346;2023-02-15T09:31:49;27.97;;;16.73;;
5776;SDS011;2914;42.668;23.346;2023-02-15T09:34:21;33.13;;;16.87;;
5776;SDS011;2914;42.668;23.346;2023-02-15T09:37:05;24.63;;;14.53;;
5776;SDS011;2914;42.668;23.346;2023-02-15T09:39:34;28.23;;;16.10;;
5776;SDS011;2914;42.668;23.346;2023-02-15T09:42:22;28.50;;;16.00;;
5776;SDS011;2914;42.668;23.346;2023-02-15T09:45:17;28.50;;;16.33;;
5776;SDS011;2914;42.668;23.346;2023-02-15T09:48:03;22.83;;;15.00;;
5776;SDS011;2914;42.668;23.346;2023-02-15T09:50:43;25.43;;;14.77;;
5776;SDS011;2914;42.668;23.346;2023-02-15T09:53:18;26.30;;;16.13;;
5776;SDS011;2914;42.668;23.346;2023-02-15T09:55:56;28.37;;;16.10;;
5776;SDS011;2914;42.668;23.346;2023-02-15T09:58:30;28.97;;;16.90;;
5776;SDS011;2914;42.668;23.346;2023-02-15T10:01:03;30.70;;;16.53;;
5776;SDS011;2914;42.668;23.346;2023-02-15T10:03:56;30.97;;;17.87;;
5776;SDS011;2914;42.668;23.346;2023-02-15T10:06:36;31.37;;;18.63;;
5776;SDS011;2914;42.668;23.346;2023-02-15T10:09:13;30.53;;;15.43;;
5776;SDS011;2914;42.668;23.346;2023-02-15T10:11:54;40.83;;;15.30;;
5776;SDS011;2914;42.668;23.346;2023-02-15T10:14:35;28.77;;;15.33;;
5776;SDS011;2914;42.668;23.346;2023-02-15T10:17:25;33.20;;;17.23;;
5776;SDS011;2914;42.668;23.346;2023-02-15T10:20:15;32.37;;;18.13;;
5776;SDS011;2914;42.668;23.346;2023-02-15T10:22:52;36.20;;;16.40;;
5776;SDS011;2914;42.668;23.346;2023-02-15T10:25:30;27.50;;;16.93;;
5776;SDS011;2914;42.668;23.346;2023-02-15T10:28:03;29.13;;;16.53;;
5776;SDS011;2914;42.668;23.346;2023-02-15T10:30:36;37.50;;;17.60;;
5776;SDS011;2914;42.668;23.346;2023-02-15T10:33:10;28.87;;;16.60;;
5776;SDS011;2914;42.668;23.346;2023-02-15T10:35:42;30.77;;;17.23;;
5776;SDS011;2914;42.668;23.346;2023-02-15T10:38:16;39.00;;;19.97;;
5776;SDS011;2914;42.668;23.346;2023-02-15T10:40:54;34.67;;;18.53;;
5776;SDS011;2914;42.668;23.346;2023-02-15T10:43:32;34.03;;;18.90;;
5776;SDS011;2914;42.668;23.346;2023-02-15T10:46:22;35.33;;;17.60;;
5776;SDS011;2914;42.668;23.346;2023-02-15T10:49:16;38.20;;;17.70;;
5776;SDS011;2914;42.668;23.346;2023-02-15T10:51:55;31.97;;;17.73;;
5776;SDS011;2914;42.668;23.346;2023-02-15T10:54:30;28.00;;;18.10;;
5776;SDS011;2914;42.668;23.346;2023-02-15T10:57:04;30.93;;;18.47;;
5776;SDS011;2914;42.668;23.346;2023-02-15T10:59:47;36.00;;;18.50;;
5776;SDS011;2914;42.668;23.346;2023-02-15T11:02:23;32.77;;;17.43;;
5776;SDS011;2914;42.668;23.346;2023-02-15T11:04:57;29.73;;;17.70;;
5776;SDS011;2914;42.668;23.346;2023-02-15T11:07:33;26.50;;;13.57;;
5776;SDS011;2914;42.668;23.346;2023-02-15T11:10:11;27.33;;;16.40;;
5776;SDS011;2914;42.668;23.346;2023-02-15T11:12:41;34.13;;;18.57;;
5776;SDS011;2914;42.668;23.346;2023-02-15T11:15:15;30.30;;;17.80;;
5776;SDS011;2914;42.668;23.346;2023-02-15T11:17:45;33.67;;;19.10;;
5776;SDS011;2914;42.668;23.346;2023-02-15T11:20:18;33.40;;;18.70;;
5776;SDS011;2914;42.668;23.346;2023-02-15T11:22:49;28.77;;;19.47;;
5776;SDS011;2914;42.668;23.346;2023-02-15T11:25:20;35.87;;;20.43;;
5776;SDS011;2914;42.668;23.346;2023-02-15T11:27:52;29.37;;;17.80;;
5776;SDS011;2914;42.668;23.346;2023-02-15T11:30:26;39.10;;;21.17;;
5776;SDS011;2914;42.668;23.346;2023-02-15T11:32:58;37.80;;;20.37;;
5776;SDS011;2914;42.668;23.346;2023-02-15T11:35:31;30.50;;;18.40;;
5776;SDS011;2914;42.668;23.346;2023-02-15T11:38:05;32.77;;;17.73;;
5776;SDS011;2914;42.668;23.346;2023-02-15T11:40:36;32.77;;;19.27;;
5776;SDS011;2914;42.668;23.346;2023-02-15T11:43:11;29.47;;;17.90;;
5776;SDS011;2914;42.668;23.346;2023-02-15T11:45:43;36.03;;;19.37;;
5776;SDS011;2914;42.668;23.346;2023-02-15T11:48:14;33.23;;;19.77;;
5776;SDS011;2914;42.668;23.346;2023-02-15T11:50:44;39.23;;;20.23;;
5776;SDS011;2914;42.668;23.346;2023-02-15T11:53:14;50.80;;;21.10;;
5776;SDS011;2914;42.668;23.346;2023-02-15T11:55:48;33.83;;;19.17;;
5776;SDS011;2914;42.668;23.346;2023-02-15T11:58:23;31.57;;;19.40;;
5776;SDS011;2914;42.668;23.346;2023-02-15T12:00:56;35.53;;;19.93;;
5776;SDS011;2914;42.668;23.346;2023-02-15T12:03:42;35.33;;;19.60;;
5776;SDS011;2914;42.668;23.346;2023-02-15T12:06:04;37.97;;;20.20;;
5776;SDS011;2914;42.668;23.346;2023-02-15T12:08:37;35.57;;;18.03;;
5776;SDS011;2914;42.668;23.346;2023-02-15T12:11:07;31.30;;;18.13;;
5776;SDS011;2914;42.668;23.346;2023-02-15T12:13:53;37.43;;;19.23;;
5776;SDS011;2914;42.668;23.346;2023-02-15T12:16:23;33.57;;;18.23;;
5776;SDS011;2914;42.668;23.346;2023-02-15T12:18:54;33.20;;;16.90;;
5776;SDS011;2914;42.668;23.346;2023-02-15T12:21:26;33.83;;;19.33;;
5776;SDS011;2914;42.668;23.346;2023-02-15T12:23:58;28.57;;;16.03;;
5776;SDS011;2914;42.668;23.346;2023-02-15T12:26:31;34.30;;;18.00;;
5776;SDS011;2914;42.668;23.346;2023-02-15T12:29:12;40.40;;;19.03;;
5776;SDS011;2914;42.668;23.346;2023-02-15T12:31:57;35.03;;;19.87;;
5776;SDS011;2914;42.668;23.346;2023-02-15T12:34:29;36.27;;;19.40;;
5776;SDS011;2914;42.668;23.346;2023-02-15T12:37:09;36.80;;;20.27;;
5776;SDS011;2914;42.668;23.346;2023-02-15T12:39:41;30.67;;;17.77;;
5776;SDS011;2914;42.668;23.346;2023-02-15T12:42:27;36.67;;;19.97;;
5776;SDS011;2914;42.668;23.346;2023-02-15T12:45:02;31.67;;;19.10;;
5776;SDS011;2914;42.668;23.346;2023-02-15T12:47:46;32.97;;;18.30;;
5776;SDS011;2914;42.668;23.346;2023-02-15T12:50:22;36.17;;;18.57;;
5776;SDS011;2914;42.668;23.346;2023-02-15T12:53:06;42.50;;;21.03;;
5776;SDS011;2914;42.668;23.346;2023-02-15T12:55:40;37.43;;;19.60;;
5776;SDS011;2914;42.668;23.346;2023-02-15T12:58:18;34.37;;;18.27;;
5776;SDS011;2914;42.668;23.346;2023-02-15T13:00:52;35.77;;;21.40;;
5776;SDS011;2914;42.668;23.346;2023-02-15T13:03:31;33.37;;;19.37;;
5776;SDS011;2914;42.668;23.346;2023-02-15T13:06:00;37.80;;;18.37;;
5776;SDS011;2914;42.668;23.346;2023-02-15T13:08:34;37.03;;;19.63;;
5776;SDS011;2914;42.668;23.346;2023-02-15T13:11:06;29.97;;;18.80;;
5776;SDS011;2914;42.668;23.346;2023-02-15T13:13:45;33.93;;;20.10;;
5776;SDS011;2914;42.668;23.346;2023-02-15T13:16:30;34.13;;;18.37;;
5776;SDS011;2914;42.668;23.346;2023-02-15T13:19:03;37.17;;;20.00;;
5776;SDS011;2914;42.668;23.346;2023-02-15T13:21:36;32.00;;;18.83;;
5776;SDS011;2914;42.668;23.346;2023-02-15T13:24:13;32.33;;;18.40;;
5776;SDS011;2914;42.668;23.346;2023-02-15T13:26:45;31.37;;;17.67;;
5776;SDS011;2914;42.668;23.346;2023-02-15T13:29:17;32.67;;;19.13;;
5776;SDS011;2914;42.668;23.346;2023-02-15T13:31:48;36.83;;;20.47;;
5776;SDS011;2914;42.668;23.346;2023-02-15T13:34:20;31.30;;;19.80;;
5776;SDS011;2914;42.668;23.346;2023-02-15T13:36:53;31.93;;;19.77;;
5776;SDS011;2914;42.668;23.346;2023-02-15T13:39:26;28.43;;;16.70;;
5776;SDS011;2914;42.668;23.346;2023-02-15T13:42:00;32.57;;;20.10;;
5776;SDS011;2914;42.668;23.346;2023-02-15T13:44:39;33.40;;;19.17;;
5776;SDS011;2914;42.668;23.346;2023-02-15T13:47:24;40.73;;;20.53;;
5776;SDS011;2914;42.668;23.346;2023-02-15T13:50:00;38.80;;;20.80;;
5776;SDS011;2914;42.668;23.346;2023-02-15T13:52:33;38.17;;;19.67;;
5776;SDS011;2914;42.668;23.346;2023-02-15T13:55:25;27.97;;;17.80;;
5776;SDS011;2914;42.668;23.346;2023-02-15T13:58:11;35.03;;;19.30;;
5776;SDS011;2914;42.668;23.346;2023-02-15T14:00:46;34.87;;;19.87;;
5776;SDS011;2914;42.668;23.346;2023-02-15T14:03:32;39.17;;;20.53;;
5776;SDS011;2914;42.668;23.346;2023-02-15T14:06:22;34.73;;;19.30;;
5776;SDS011;2914;42.668;23.346;2023-02-15T14:09:08;41.90;;;19.67;;
5776;SDS011;2914;42.668;23.346;2023-02-15T14:11:42;43.60;;;20.80;;
5776;SDS011;2914;42.668;23.346;2023-02-15T14:17:23;40.07;;;21.30;;
5776;SDS011;2914;42.668;23.346;2023-02-15T14:19:56;36.17;;;19.60;;
5776;SDS011;2914;42.668;23.346;2023-02-15T14:22:28;38.73;;;21.37;;
5776;SDS011;2914;42.668;23.346;2023-02-15T14:25:02;38.17;;;19.60;;
5776;SDS011;2914;42.668;23.346;2023-02-15T14:27:39;31.83;;;19.00;;
5776;SDS011;2914;42.668;23.346;2023-02-15T14:30:14;36.60;;;21.03;;
5776;SDS011;2914;42.668;23.346;2023-02-15T14:32:47;40.07;;;20.90;;
5776;SDS011;2914;42.668;23.346;2023-02-15T14:35:20;36.30;;;20.17;;
5776;SDS011;2914;42.668;23.346;2023-02-15T14:37:53;37.63;;;20.83;;
5776;SDS011;2914;42.668;23.346;2023-02-15T14:40:28;35.07;;;20.10;;
5776;SDS011;2914;42.668;23.346;2023-02-15T14:43:20;45.07;;;21.33;;
5776;SDS011;2914;42.668;23.346;2023-02-15T14:45:54;42.77;;;21.33;;
5776;SDS011;2914;42.668;23.346;2023-02-15T14:48:25;37.60;;;19.60;;
5776;SDS011;2914;42.668;23.346;2023-02-15T14:50:58;37.70;;;22.10;;
5776;SDS011;2914;42.668;23.346;2023-02-15T14:56:18;40.17;;;21.57;;
5776;SDS011;2914;42.668;23.346;2023-02-15T14:58:56;35.93;;;20.33;;
5776;SDS011;2914;42.668;23.346;2023-02-15T15:04:54;36.03;;;20.53;;
5776;SDS011;2914;42.668;23.346;2023-02-15T15:07:25;33.80;;;20.43;;
5776;SDS011;2914;42.668;23.346;2023-02-15T15:10:04;37.73;;;21.20;;
5776;SDS011;2914;42.668;23.346;2023-02-15T15:12:44;37.60;;;20.90;;
5776;SDS011;2914;42.668;23.346;2023-02-15T15:15:15;42.50;;;20.87;;
5776;SDS011;2914;42.668;23.346;2023-02-15T15:17:58;34.63;;;20.33;;
5776;SDS011;2914;42.668;23.346;2023-02-15T15:20:42;44.70;;;21.77;;
5776;SDS011;2914;42.668;23.346;2023-02-15T15:26:21;36.10;;;19.90;;
5776;SDS011;2914;42.668;23.346;2023-02-15T15:28:54;34.07;;;19.90;;
5776;SDS011;2914;42.668;23.346;2023-02-15T15:31:26;44.77;;;22.30;;
5776;SDS011;2914;42.668;23.346;2023-02-15T15:36:58;37.87;;;20.07;;
5776;SDS011;2914;42.668;23.346;2023-02-15T15:46:11;42.13;;;22.47;;
5776;SDS011;2914;42.668;23.346;2023-02-15T15:48:45;40.20;;;21.97;;
5776;SDS011;2914;42.668;23.346;2023-02-15T15:51:14;43.30;;;22.77;;
5776;SDS011;2914;42.668;23.346;2023-02-15T15:54:00;44.07;;;23.23;;